Time;durP1;ratioP1;P1;durP2;ratioP2;P2;SDS_P1;SDS_P2;PMS_P1;PMS_P2;Temp;Humidity;BMP_temperature;BMP_pressure;BME280_temperature;BME280_humidity;BME280_pressure;Samples;Min_cycle;Max_cycle;Signal;HPM_P1;HPM_P2
2022/11/17 00:01:58;;;;;;;13.13;8.73;;;11.80;99.90;;;;;;5072102;28;20041;-79
2022/11/17 00:04:28;;;;;;;12.23;8.20;;;11.80;99.90;;;;;;5072028;28;20048;-78
2022/11/17 00:06:58;;;;;;;10.63;7.60;;;11.80;99.90;;;;;;5071302;28;20051;-78
2022/11/17 00:09:25;;;;;;;11.43;8.20;;;11.70;99.90;;;;;;5070839;28;20067;-78
2022/11/17 00:14:39;;;;;;;12.05;8.43;;;11.60;99.90;;;;;;5071114;28;20059;-79
2022/11/17 00:17:08;;;;;;;12.43;8.00;;;11.60;99.90;;;;;;5070119;28;20135;-77
2022/11/17 00:22:22;;;;;;;13.07;7.93;;;11.60;99.90;;;;;;5072266;28;20128;-78
2022/11/17 00:24:50;;;;;;;12.50;7.30;;;11.50;99.90;;;;;;5070500;28;20396;-77
2022/11/17 00:27:17;;;;;;;13.50;8.00;;;11.50;99.90;;;;;;5071237;28;20518;-77
2022/11/17 00:29:45;;;;;;;13.60;8.20;;;11.40;99.90;;;;;;5070186;28;20067;-76
2022/11/17 00:34:58;;;;;;;13.88;7.43;;;11.40;99.90;;;;;;5071318;28;20139;-78
2022/11/17 00:37:27;;;;;;;10.85;7.03;;;11.40;99.90;;;;;;5070010;28;20083;-78
2022/11/17 00:39:55;;;;;;;13.05;7.78;;;11.40;99.90;;;;;;5069797;28;20093;-77
2022/11/17 00:42:22;;;;;;;13.57;8.27;;;11.40;99.90;;;;;;5071499;28;20063;-77
2022/11/17 00:44:49;;;;;;;11.25;7.63;;;11.40;99.90;;;;;;5074152;28;20102;-78
2022/11/17 00:47:16;;;;;;;11.85;7.65;;;11.40;99.90;;;;;;5092351;28;20025;-77
2022/11/17 00:49:44;;;;;;;15.38;8.52;;;11.40;99.90;;;;;;5086766;28;20098;-78
2022/11/17 00:52:11;;;;;;;12.98;8.63;;;11.40;99.90;;;;;;5071317;28;20071;-78
2022/11/17 00:54:40;;;;;;;15.05;7.72;;;11.40;99.90;;;;;;5070503;28;20153;-78
2022/11/17 00:57:07;;;;;;;12.52;8.18;;;11.40;99.90;;;;;;5069832;28;20131;-78
2022/11/17 00:59:34;;;;;;;15.70;9.98;;;11.40;99.90;;;;;;5070009;28;20032;-78
2022/11/17 01:02:01;;;;;;;14.35;10.00;;;11.40;99.90;;;;;;5070843;28;20040;-77
2022/11/17 01:04:29;;;;;;;16.63;10.57;;;11.40;99.90;;;;;;5070536;28;20071;-79
2022/11/17 01:06:56;;;;;;;14.05;10.30;;;11.30;99.90;;;;;;5070138;28;20483;-77
2022/11/17 01:09:24;;;;;;;14.50;9.32;;;11.20;99.90;;;;;;5069670;28;20116;-76
2022/11/17 01:11:53;;;;;;;14.43;9.32;;;11.30;99.90;;;;;;5070443;28;20094;-79
2022/11/17 01:14:22;;;;;;;14.30;9.75;;;11.30;99.90;;;;;;5070141;28;20083;-78
2022/11/17 01:16:50;;;;;;;16.63;9.93;;;11.30;99.90;;;;;;5070338;28;20040;-77
2022/11/17 01:19:18;;;;;;;13.57;9.32;;;11.30;99.90;;;;;;5069134;28;20043;-78
2022/11/17 01:21:46;;;;;;;13.48;9.27;;;11.30;99.90;;;;;;5070563;28;20041;-79
2022/11/17 01:24:15;;;;;;;14.60;9.00;;;11.30;99.90;;;;;;5070272;28;20052;-77
2022/11/17 01:26:43;;;;;;;14.30;8.75;;;11.20;99.90;;;;;;5070434;28;20048;-78
2022/11/17 01:29:15;;;;;;;15.75;9.88;;;11.20;99.90;;;;;;5068391;28;20047;-77
2022/11/17 01:31:43;;;;;;;13.15;9.02;;;11.20;99.90;;;;;;5070286;28;20052;-79
2022/11/17 01:34:11;;;;;;;13.00;7.95;;;11.20;99.90;;;;;;5070083;28;20045;-78
2022/11/17 01:39:22;;;;;;;10.75;6.97;;;11.20;99.90;;;;;;5069496;28;20044;-78
2022/11/17 01:41:49;;;;;;;12.77;7.65;;;11.20;99.90;;;;;;5068816;28;20086;-77
2022/11/17 01:44:53;;;;;;;11.40;7.63;;;11.20;99.90;;;;;;5068961;28;20123;-78
2022/11/17 01:47:23;;;;;;;14.30;7.78;;;11.20;99.90;;;;;;5069376;28;20044;-79
2022/11/17 01:49:55;;;;;;;13.23;6.90;;;11.20;99.90;;;;;;5068839;28;20662;-79
2022/11/17 01:52:24;;;;;;;11.52;5.65;;;11.20;99.90;;;;;;5068009;28;20071;-78
2022/11/17 01:54:53;;;;;;;10.65;5.88;;;11.20;99.90;;;;;;5069129;28;20045;-78
2022/11/17 01:57:24;;;;;;;7.40;4.50;;;11.20;99.90;;;;;;5068522;28;20044;-80
2022/11/17 01:59:56;;;;;;;7.82;4.75;;;11.10;99.90;;;;;;5068656;28;20037;-78
2022/11/17 02:02:24;;;;;;;7.72;4.95;;;11.10;99.90;;;;;;5068717;28;20032;-78
2022/11/17 02:04:58;;;;;;;11.38;8.70;;;11.10;99.90;;;;;;5069255;28;20661;-77
2022/11/17 02:07:27;;;;;;;9.40;5.40;;;11.20;99.90;;;;;;5069695;28;20043;-76
2022/11/17 02:09:55;;;;;;;9.55;6.57;;;11.20;99.90;;;;;;5069386;28;20598;-77
2022/11/17 02:12:26;;;;;;;6.75;4.68;;;11.10;99.90;;;;;;5069218;28;20037;-77
2022/11/17 02:14:55;;;;;;;6.72;4.70;;;11.10;99.90;;;;;;5068871;28;20495;-79
2022/11/17 02:17:24;;;;;;;6.40;4.35;;;11.10;99.90;;;;;;5068787;28;20041;-77
2022/11/17 02:20:04;;;;;;;9.13;5.05;;;11.10;99.90;;;;;;5067405;28;20640;-77
2022/11/17 02:23:05;;;;;;;8.55;5.45;;;11.00;99.90;;;;;;5069241;28;20067;-78
2022/11/17 02:25:48;;;;;;;10.88;7.10;;;11.00;99.90;;;;;;5068652;28;20048;-78
2022/11/17 02:28:20;;;;;;;11.75;6.97;;;11.00;99.90;;;;;;5068524;28;20068;-79
2022/11/17 02:31:00;;;;;;;11.45;8.55;;;11.00;99.90;;;;;;5068910;28;20040;-78
2022/11/17 02:33:36;;;;;;;12.90;8.43;;;11.00;99.90;;;;;;5070388;28;20040;-78
2022/11/17 02:36:08;;;;;;;11.57;8.23;;;11.00;99.90;;;;;;5069440;28;20125;-77
2022/11/17 02:38:44;;;;;;;12.80;8.55;;;11.00;99.90;;;;;;5068522;28;20040;-79
2022/11/17 02:41:17;;;;;;;13.55;8.40;;;11.10;99.90;;;;;;5068884;28;20089;-79
2022/11/17 02:44:03;;;;;;;12.18;8.30;;;11.10;99.90;;;;;;5069494;28;20052;-77
2022/11/17 02:46:37;;;;;;;10.88;8.00;;;11.20;99.90;;;;;;5069288;28;20040;-80
2022/11/17 02:49:12;;;;;;;10.77;7.97;;;11.10;99.90;;;;;;5070868;28;20132;-77
2022/11/17 02:51:43;;;;;;;11.88;7.85;;;11.10;99.90;;;;;;5073206;28;20037;-79
2022/11/17 02:54:11;;;;;;;10.38;7.75;;;11.10;99.90;;;;;;5073394;28;20106;-77
2022/11/17 02:56:41;;;;;;;10.30;7.90;;;11.00;99.90;;;;;;5072368;28;20041;-77
2022/11/17 02:59:12;;;;;;;10.10;7.47;;;11.00;99.90;;;;;;5074834;28;20029;-77
2022/11/17 03:02:04;;;;;;;9.40;6.70;;;10.90;99.90;;;;;;5076491;28;20039;-77
2022/11/17 03:04:40;;;;;;;8.63;6.78;;;10.80;99.90;;;;;;5072779;28;20103;-77
2022/11/17 03:07:18;;;;;;;9.52;6.97;;;10.80;99.90;;;;;;5072879;28;20048;-79
2022/11/17 03:09:52;;;;;;;9.10;7.53;;;10.80;99.90;;;;;;5072437;28;20756;-76
2022/11/17 03:12:24;;;;;;;10.18;6.85;;;10.70;99.90;;;;;;5074045;28;20086;-79
2022/11/17 03:15:10;;;;;;;12.77;7.70;;;10.70;99.90;;;;;;5071755;28;20099;-78
2022/11/17 03:17:45;;;;;;;8.88;6.75;;;10.70;99.90;;;;;;5071893;28;20036;-77
2022/11/17 03:20:16;;;;;;;11.05;6.82;;;10.80;99.90;;;;;;5073309;28;20045;-77
2022/11/17 03:22:50;;;;;;;11.40;7.93;;;10.80;99.90;;;;;;5072883;28;20122;-80
2022/11/17 03:25:21;;;;;;;10.05;6.90;;;10.80;99.90;;;;;;5072255;28;20499;-79
2022/11/17 03:27:54;;;;;;;11.27;7.03;;;10.80;99.90;;;;;;5072027;28;20507;-78
2022/11/17 03:30:24;;;;;;;12.00;7.78;;;10.70;99.90;;;;;;5072899;28;20048;-78
2022/11/17 03:32:56;;;;;;;10.05;7.60;;;10.70;99.90;;;;;;5074315;28;20037;-77
2022/11/17 03:35:28;;;;;;;10.88;7.30;;;10.70;99.90;;;;;;5075265;28;20049;-76
2022/11/17 03:38:00;;;;;;;10.27;7.55;;;10.70;99.90;;;;;;5073018;28;20071;-78
2022/11/17 03:40:32;;;;;;;8.80;6.78;;;10.70;99.90;;;;;;5071666;28;20041;-78
2022/11/17 03:43:04;;;;;;;13.95;9.90;;;10.70;99.90;;;;;;5073901;28;20127;-77
2022/11/17 03:45:35;;;;;;;12.57;8.88;;;10.70;99.90;;;;;;5073241;28;20106;-79
2022/11/17 03:48:07;;;;;;;11.05;7.70;;;10.70;99.90;;;;;;5070701;28;20053;-78
2022/11/17 03:50:38;;;;;;;10.40;7.60;;;10.70;99.90;;;;;;5072535;28;20497;-79
2022/11/17 03:53:06;;;;;;;9.02;7.13;;;10.80;99.90;;;;;;5072831;28;20044;-78
2022/11/17 03:55:40;;;;;;;11.18;7.68;;;10.70;99.90;;;;;;5072247;28;20045;-78
2022/11/17 03:58:12;;;;;;;10.30;7.53;;;10.80;99.90;;;;;;5071191;28;20068;-79
2022/11/17 04:00:43;;;;;;;10.05;6.55;;;10.80;99.90;;;;;;5071144;28;20117;-78
2022/11/17 04:03:10;;;;;;;10.07;7.75;;;10.80;99.90;;;;;;5070814;28;20044;-78
2022/11/17 04:05:37;;;;;;;12.43;7.38;;;10.70;99.90;;;;;;5072159;28;20037;-79
2022/11/17 04:08:05;;;;;;;13.68;10.32;;;10.70;99.90;;;;;;5078791;28;20041;-77
2022/11/17 04:15:54;;;;;;;16.17;11.05;;;10.60;99.90;;;;;;5090493;28;20047;-79
2022/11/17 04:16:06;;;;;;;16.98;12.75;;;10.40;99.90;;;;;;5070848;28;20051;-78
2022/11/17 04:18:39;;;;;;;19.95;12.43;;;10.30;99.90;;;;;;5070068;28;20041;-78
2022/11/17 04:21:06;;;;;;;14.73;10.55;;;10.30;99.90;;;;;;5072269;28;20068;-78
2022/11/17 04:23:34;;;;;;;15.50;10.80;;;10.40;99.90;;;;;;5071749;28;20062;-78
2022/11/17 04:28:49;;;;;;;13.65;9.98;;;10.40;99.90;;;;;;5069430;28;20036;-78
2022/11/17 04:31:20;;;;;;;14.57;11.25;;;10.40;99.90;;;;;;5071351;28;20086;-77
2022/11/17 04:33:48;;;;;;;15.07;11.40;;;10.40;99.90;;;;;;5071404;28;20071;-78
2022/11/17 04:36:17;;;;;;;14.13;10.63;;;10.40;99.90;;;;;;5078978;28;20048;-76
2022/11/17 04:38:46;;;;;;;12.57;9.95;;;10.40;99.90;;;;;;5070328;28;20055;-78
2022/11/17 04:44:01;;;;;;;17.00;12.95;;;10.40;99.90;;;;;;5070951;28;20086;-77
2022/11/17 04:46:32;;;;;;;15.68;12.65;;;10.40;99.90;;;;;;5071169;28;20044;-76
2022/11/17 04:49:00;;;;;;;16.55;12.75;;;10.40;99.90;;;;;;5069767;28;20487;-77
2022/11/17 04:51:31;;;;;;;14.80;11.30;;;10.30;99.90;;;;;;5069759;28;20099;-77
2022/11/17 04:53:58;;;;;;;17.02;12.85;;;10.20;99.90;;;;;;5070861;28;20039;-78
2022/11/17 04:56:27;;;;;;;18.50;13.63;;;10.30;99.90;;;;;;5070913;28;20044;-77
2022/11/17 04:58:55;;;;;;;22.55;16.70;;;10.30;99.90;;;;;;5069823;28;20036;-79
2022/11/17 05:01:22;;;;;;;27.95;21.17;;;10.30;99.90;;;;;;5069939;28;20072;-79
2022/11/17 05:03:53;;;;;;;26.80;21.70;;;10.30;99.90;;;;;;5070030;28;20036;-79
2022/11/17 05:06:25;;;;;;;24.52;17.38;;;10.30;99.90;;;;;;5071827;28;20037;-78
2022/11/17 05:08:54;;;;;;;27.25;17.83;;;10.20;99.90;;;;;;5070826;28;20044;-79
2022/11/17 05:14:08;;;;;;;31.15;19.95;;;10.30;99.90;;;;;;5070908;28;20059;-77
2022/11/17 05:19:23;;;;;;;30.08;20.58;;;10.20;99.90;;;;;;5070017;28;20051;-77
2022/11/17 05:21:50;;;;;;;28.27;20.02;;;10.10;99.90;;;;;;5070553;28;20040;-78
2022/11/17 05:24:17;;;;;;;30.60;20.23;;;10.10;99.90;;;;;;5069290;28;20041;-78
2022/11/17 05:26:46;;;;;;;28.92;20.67;;;10.20;99.90;;;;;;5069089;28;20052;-78
2022/11/17 05:29:15;;;;;;;30.05;21.77;;;10.20;99.90;;;;;;5069323;28;20044;-78
2022/11/17 05:31:42;;;;;;;32.15;22.98;;;10.10;99.90;;;;;;5070033;28;20057;-79
2022/11/17 05:34:11;;;;;;;36.70;26.10;;;10.10;99.90;;;;;;5069963;28;20124;-77
2022/11/17 05:36:40;;;;;;;34.55;23.77;;;10.10;99.90;;;;;;5070012;28;20051;-79
2022/11/17 05:39:08;;;;;;;38.50;28.25;;;10.10;99.90;;;;;;5068393;28;20047;-78
2022/11/17 05:41:36;;;;;;;38.38;29.05;;;10.10;99.90;;;;;;5068593;28;20063;-78
2022/11/17 05:44:04;;;;;;;40.08;28.27;;;10.20;99.90;;;;;;5069351;28;20415;-77
2022/11/17 05:46:32;;;;;;;41.28;30.13;;;10.20;99.90;;;;;;5068324;28;20484;-79
2022/11/17 05:49:00;;;;;;;36.15;26.17;;;10.20;99.90;;;;;;5068973;28;20040;-77
2022/11/17 05:51:27;;;;;;;36.13;24.50;;;10.20;99.90;;;;;;5068559;28;20045;-78
2022/11/17 05:53:56;;;;;;;34.75;24.42;;;10.20;99.90;;;;;;5069055;28;20041;-78
2022/11/17 05:56:38;;;;;;;57.10;31.05;;;10.20;99.90;;;;;;5069181;28;20052;-80
2022/11/17 05:59:14;;;;;;;32.97;23.85;;;10.30;99.90;;;;;;5068890;28;20040;-79
2022/11/17 06:01:46;;;;;;;26.83;20.85;;;10.30;99.90;;;;;;5068078;28;20434;-78
2022/11/17 06:04:17;;;;;;;28.80;20.60;;;10.40;99.90;;;;;;5069188;28;20033;-78
2022/11/17 06:06:44;;;;;;;27.75;20.42;;;10.30;99.90;;;;;;5069421;28;20033;-78
2022/11/17 06:09:14;;;;;;;27.92;20.20;;;10.40;99.90;;;;;;5068662;28;20044;-77
2022/11/17 06:11:41;;;;;;;27.00;20.83;;;10.40;99.90;;;;;;5068649;28;20041;-78
2022/11/17 06:14:08;;;;;;;30.08;20.58;;;10.50;99.90;;;;;;5068695;28;20514;-76
2022/11/17 06:16:41;;;;;;;28.60;20.90;;;10.50;99.90;;;;;;5067959;28;20040;-78
2022/11/17 06:19:13;;;;;;;29.67;23.75;;;10.50;99.90;;;;;;5067500;28;20040;-79
2022/11/17 06:21:40;;;;;;;38.15;27.08;;;10.60;99.90;;;;;;5068585;28;20040;-78
2022/11/17 06:24:08;;;;;;;49.08;35.67;;;10.60;99.90;;;;;;5068598;28;20040;-79
2022/11/17 06:26:39;;;;;;;42.75;30.50;;;10.50;99.90;;;;;;5069086;28;20095;-78
2022/11/17 06:29:06;;;;;;;33.90;25.42;;;10.60;99.90;;;;;;5068256;28;20045;-77
2022/11/17 06:31:33;;;;;;;26.35;21.35;;;10.60;99.90;;;;;;5068787;28;20131;-77
2022/11/17 06:34:02;;;;;;;28.17;19.85;;;10.60;99.90;;;;;;5067856;28;20118;-77
2022/11/17 06:36:30;;;;;;;32.05;23.70;;;10.70;99.90;;;;;;5069423;28;20041;-78
2022/11/17 06:38:57;;;;;;;33.17;23.58;;;10.70;99.90;;;;;;5068441;28;20037;-77
2022/11/17 06:41:25;;;;;;;35.33;24.65;;;10.70;99.90;;;;;;5069788;28;20432;-79
2022/11/17 06:43:53;;;;;;;39.38;28.75;;;10.70;99.90;;;;;;5069460;28;20051;-78
2022/11/17 06:46:21;;;;;;;43.33;29.45;;;10.80;99.90;;;;;;5068328;28;20128;-77
2022/11/17 06:48:48;;;;;;;48.28;34.55;;;10.80;99.90;;;;;;5066826;28;20561;-78
2022/11/17 06:51:15;;;;;;;51.63;37.15;;;10.90;99.90;;;;;;5069595;28;20476;-78
2022/11/17 06:53:42;;;;;;;51.50;37.40;;;10.90;99.90;;;;;;5069540;28;20484;-78
2022/11/17 06:56:10;;;;;;;54.00;40.35;;;10.90;99.90;;;;;;5068720;28;20135;-76
2022/11/17 06:58:40;;;;;;;61.95;46.58;;;11.00;99.90;;;;;;5068308;28;20396;-79
2022/11/17 07:01:11;;;;;;;86.93;64.43;;;11.00;99.90;;;;;;5069010;28;20480;-77
2022/11/17 07:03:39;;;;;;;86.13;62.88;;;11.10;99.90;;;;;;5069060;28;20503;-79
2022/11/17 07:06:09;;;;;;;79.65;58.05;;;11.10;99.90;;;;;;5069068;28;20127;-78
2022/11/17 07:08:38;;;;;;;61.13;43.85;;;11.10;99.90;;;;;;5068400;28;20048;-78
2022/11/17 07:11:06;;;;;;;53.42;38.92;;;11.00;99.90;;;;;;5069015;28;20068;-77
2022/11/17 07:13:34;;;;;;;62.60;43.05;;;11.00;99.90;;;;;;5069177;28;20053;-76
2022/11/17 07:16:04;;;;;;;57.60;39.15;;;11.20;99.90;;;;;;5068546;28;20415;-78
2022/11/17 07:18:33;;;;;;;48.03;35.80;;;11.20;99.90;;;;;;5068139;28;20068;-76
2022/11/17 07:21:03;;;;;;;50.83;37.55;;;11.30;99.90;;;;;;5074973;28;20067;-78
2022/11/17 07:23:30;;;;;;;48.20;37.28;;;11.40;99.90;;;;;;5076890;28;20071;-76
2022/11/17 07:25:58;;;;;;;54.55;39.72;;;11.30;99.90;;;;;;5073262;28;20113;-77
2022/11/17 07:28:25;;;;;;;65.93;44.22;;;11.40;99.90;;;;;;5070489;28;20569;-78
2022/11/17 07:30:53;;;;;;;52.20;37.45;;;11.50;99.90;;;;;;5073116;28;20040;-75
2022/11/17 07:33:21;;;;;;;45.05;32.00;;;11.60;99.90;;;;;;5083709;28;20045;-78
2022/11/17 07:35:51;;;;;;;38.03;28.10;;;11.70;99.90;;;;;;5077649;28;20052;-77
2022/11/17 07:38:18;;;;;;;37.85;27.70;;;11.80;99.90;;;;;;5074233;28;20071;-77
2022/11/17 07:40:45;;;;;;;27.85;22.60;;;11.90;99.90;;;;;;5074759;28;20044;-78
2022/11/17 07:43:12;;;;;;;36.40;24.63;;;12.00;99.90;;;;;;5072950;28;20067;-76
2022/11/17 07:45:40;;;;;;;29.77;24.05;;;12.00;99.90;;;;;;5071399;28;20550;-76
2022/11/17 07:48:07;;;;;;;38.17;29.17;;;12.00;99.90;;;;;;5071436;28;20060;-78
2022/11/17 07:50:35;;;;;;;40.72;32.97;;;12.00;99.90;;;;;;5070595;28;20032;-76
2022/11/17 07:53:04;;;;;;;43.25;31.67;;;12.00;99.90;;;;;;5070918;28;20041;-77
2022/11/17 07:55:31;;;;;;;47.78;34.03;;;12.10;99.90;;;;;;5071723;28;20090;-77
2022/11/17 07:58:01;;;;;;;42.83;31.67;;;12.30;99.90;;;;;;5071095;28;20047;-78
2022/11/17 08:00:30;;;;;;;37.63;28.70;;;12.40;99.90;;;;;;5069926;28;20044;-77
2022/11/17 08:03:02;;;;;;;39.72;30.23;;;12.60;99.90;;;;;;5069847;28;20072;-78
2022/11/17 08:05:30;;;;;;;32.55;24.75;;;12.70;99.90;;;;;;5072010;28;20036;-78
2022/11/17 08:07:59;;;;;;;27.95;21.67;;;12.60;99.90;;;;;;5071850;28;20040;-75
2022/11/17 08:10:30;;;;;;;31.90;22.83;;;12.60;99.90;;;;;;5082051;28;20082;-79
2022/11/17 08:12:58;;;;;;;29.30;22.48;;;12.70;99.90;;;;;;5081369;28;20180;-77
2022/11/17 08:15:26;;;;;;;25.38;19.38;;;12.80;99.90;;;;;;5073439;28;20051;-78
2022/11/17 08:17:55;;;;;;;21.45;17.73;;;12.80;99.90;;;;;;5071381;28;20534;-78
2022/11/17 08:20:24;;;;;;;23.77;18.88;;;12.70;99.90;;;;;;5072482;28;20049;-77
2022/11/17 08:22:53;;;;;;;27.17;20.13;;;12.70;99.90;;;;;;5071439;28;20052;-79
2022/11/17 08:25:22;;;;;;;23.75;18.45;;;12.70;99.90;;;;;;5071432;28;20503;-78
2022/11/17 08:27:53;;;;;;;25.13;19.05;;;12.80;99.90;;;;;;5069823;28;20048;-77
2022/11/17 08:30:21;;;;;;;24.08;17.40;;;12.90;99.90;;;;;;5069823;28;20045;-75
2022/11/17 08:32:50;;;;;;;22.98;17.20;;;12.90;99.90;;;;;;5071195;28;20126;-78
2022/11/17 08:35:18;;;;;;;24.48;18.88;;;13.00;99.90;;;;;;5071225;28;20033;-78
2022/11/17 08:37:45;;;;;;;29.25;19.50;;;13.00;99.90;;;;;;5070324;28;20044;-77
2022/11/17 08:40:13;;;;;;;28.23;20.05;;;13.10;99.90;;;;;;5070957;28;20119;-77
2022/11/17 08:42:41;;;;;;;31.15;23.05;;;13.10;99.90;;;;;;5070571;28;20040;-76
2022/11/17 08:45:10;;;;;;;26.55;20.40;;;13.20;99.90;;;;;;5070262;28;20057;-77
2022/11/17 08:47:38;;;;;;;22.50;16.35;;;13.40;99.90;;;;;;5070073;28;20128;-77
2022/11/17 08:50:07;;;;;;;26.27;18.58;;;13.40;99.90;;;;;;5070925;28;20036;-76
2022/11/17 08:52:34;;;;;;;21.30;15.52;;;13.40;99.90;;;;;;5070924;28;20036;-78
2022/11/17 08:55:04;;;;;;;29.90;20.30;;;13.50;99.90;;;;;;5070727;28;20551;-76
2022/11/17 08:57:32;;;;;;;24.23;15.32;;;13.60;99.90;;;;;;5069548;28;20045;-76
2022/11/17 09:00:01;;;;;;;21.50;15.32;;;13.60;99.90;;;;;;5070016;28;20094;-77
2022/11/17 09:02:29;;;;;;;21.27;14.77;;;13.60;99.90;;;;;;5070556;28;20033;-75
2022/11/17 09:04:57;;;;;;;21.27;13.80;;;13.50;99.90;;;;;;5070821;28;20048;-77
2022/11/17 09:07:24;;;;;;;18.65;12.90;;;13.60;99.90;;;;;;5070550;28;20045;-77
2022/11/17 09:09:51;;;;;;;18.40;10.80;;;13.70;99.90;;;;;;5069604;28;20392;-78
2022/11/17 09:12:19;;;;;;;19.85;12.20;;;13.70;99.90;;;;;;5070429;28;20115;-77
2022/11/17 09:14:46;;;;;;;16.85;11.63;;;13.50;99.90;;;;;;5070319;28;20396;-77
2022/11/17 09:17:13;;;;;;;14.15;9.02;;;13.50;99.90;;;;;;5070494;28;20072;-78
2022/11/17 09:19:43;;;;;;;15.50;9.55;;;13.60;99.90;;;;;;5069657;28;20117;-76
2022/11/17 09:22:10;;;;;;;15.18;9.35;;;13.80;99.90;;;;;;5071986;28;20037;-78
2022/11/17 09:24:38;;;;;;;13.82;9.93;;;13.90;99.90;;;;;;5070257;28;20068;-78
2022/11/17 09:27:05;;;;;;;11.75;8.00;;;13.80;99.90;;;;;;5070618;28;20169;-76
2022/11/17 09:29:32;;;;;;;15.95;8.05;;;14.00;99.90;;;;;;5069511;28;20047;-77
2022/11/17 09:31:59;;;;;;;18.98;10.32;;;14.30;99.90;;;;;;5069943;28;20082;-77
2022/11/17 09:34:28;;;;;;;12.75;8.43;;;14.40;99.90;;;;;;5070044;28;20086;-78
2022/11/17 09:36:56;;;;;;;14.93;9.05;;;14.30;99.90;;;;;;5069753;28;20047;-77
2022/11/17 09:39:24;;;;;;;13.63;8.77;;;14.30;99.90;;;;;;5066261;28;20082;-75
2022/11/17 09:41:53;;;;;;;19.13;9.60;;;14.50;99.90;;;;;;5068268;28;20102;-76
2022/11/17 09:44:31;;;;;;;16.98;9.82;;;14.70;99.90;;;;;;5069747;28;20068;-78
2022/11/17 09:47:07;;;;;;;17.23;10.00;;;14.80;99.90;;;;;;5070218;28;20094;-75
2022/11/17 09:49:45;;;;;;;15.55;10.32;;;15.00;99.90;;;;;;5068555;28;20040;-76
2022/11/17 09:52:19;;;;;;;14.45;10.77;;;15.10;99.90;;;;;;5069287;28;20425;-77
2022/11/17 09:54:53;;;;;;;14.52;9.48;;;15.20;99.90;;;;;;5068113;28;20106;-78
2022/11/17 09:57:31;;;;;;;16.27;10.88;;;15.20;99.90;;;;;;5068886;28;20037;-77
2022/11/17 10:00:13;;;;;;;17.20;11.30;;;15.20;99.90;;;;;;5067100;28;20142;-77
2022/11/17 10:02:40;;;;;;;14.10;11.40;;;15.20;99.90;;;;;;5069661;28;20129;-76
2022/11/17 10:05:13;;;;;;;16.48;10.93;;;14.90;99.90;;;;;;5069549;28;20715;-78
2022/11/17 10:07:48;;;;;;;19.35;11.77;;;14.90;99.90;;;;;;5069442;28;20072;-76
2022/11/17 10:10:20;;;;;;;15.88;11.15;;;15.00;99.90;;;;;;5066654;28;20091;-77
2022/11/17 10:12:53;;;;;;;17.23;10.43;;;15.10;99.90;;;;;;5069296;28;20070;-75
2022/11/17 10:15:25;;;;;;;14.55;10.10;;;15.20;99.90;;;;;;5070491;28;20150;-78
2022/11/17 10:17:53;;;;;;;13.25;8.13;;;15.10;99.90;;;;;;5068761;28;20071;-78
2022/11/17 10:20:21;;;;;;;11.77;8.20;;;15.20;99.90;;;;;;5068990;28;20099;-78
2022/11/17 10:22:52;;;;;;;9.25;6.82;;;15.00;99.90;;;;;;5069419;28;20088;-76
2022/11/17 10:25:35;;;;;;;10.82;6.85;;;14.80;99.90;;;;;;5068519;28;20079;-78
2022/11/17 10:28:02;;;;;;;14.55;8.23;;;14.80;99.90;;;;;;5068535;28;20064;-75
2022/11/17 10:30:29;;;;;;;13.40;6.93;;;14.70;99.90;;;;;;5069027;28;20064;-77
2022/11/17 10:32:58;;;;;;;9.00;6.60;;;14.80;99.90;;;;;;5068437;28;20041;-78
2022/11/17 10:35:29;;;;;;;11.55;6.18;;;15.00;99.90;;;;;;5068940;28;20407;-77
2022/11/17 10:38:00;;;;;;;12.77;6.22;;;14.80;99.90;;;;;;5068343;28;20094;-77
2022/11/17 10:40:29;;;;;;;10.70;7.40;;;14.90;99.90;;;;;;5068234;28;20086;-77
2022/11/17 10:43:20;;;;;;;13.57;6.47;;;15.10;99.90;;;;;;5069344;28;20072;-76
2022/11/17 10:45:49;;;;;;;11.32;6.72;;;14.90;99.90;;;;;;5068606;28;20102;-78
2022/11/17 10:48:25;;;;;;;9.65;6.55;;;14.80;99.90;;;;;;5068668;28;20045;-77
2022/11/17 10:50:55;;;;;;;9.82;4.53;;;14.90;99.90;;;;;;5069005;28;20072;-76
2022/11/17 10:53:27;;;;;;;9.52;5.85;;;14.80;99.90;;;;;;5067622;28;20561;-79
2022/11/17 10:55:58;;;;;;;8.65;3.80;;;14.90;99.90;;;;;;5068985;28;20118;-77
2022/11/17 10:58:27;;;;;;;11.85;5.70;;;14.90;99.90;;;;;;5068091;28;20044;-77
2022/11/17 11:00:56;;;;;;;7.55;5.50;;;15.10;99.90;;;;;;5068949;28;20089;-77
2022/11/17 11:03:26;;;;;;;8.10;5.57;;;15.20;99.90;;;;;;5069206;28;20084;-76
2022/11/17 11:06:21;;;;;;;10.75;6.72;;;15.10;99.90;;;;;;5068706;28;20078;-78
2022/11/17 11:08:56;;;;;;;12.63;5.65;;;15.20;99.90;;;;;;5069098;28;20037;-77
2022/11/17 11:11:43;;;;;;;6.53;3.97;;;15.30;99.90;;;;;;5083550;28;20048;-78
2022/11/17 11:14:19;;;;;;;14.82;8.63;;;15.30;99.90;;;;;;5087909;28;20068;-77
2022/11/17 11:16:49;;;;;;;8.13;5.18;;;15.40;99.90;;;;;;5087295;28;20044;-77
2022/11/17 11:19:18;;;;;;;6.88;4.15;;;15.60;99.90;;;;;;5072172;28;20048;-75
2022/11/17 11:22:04;;;;;;;9.35;4.03;;;15.80;99.90;;;;;;5073605;28;20048;-77
2022/11/17 11:24:38;;;;;;;;;;;15.90;99.90;;;;;;5073248;28;20545;-76
2022/11/17 11:27:29;;;;;;;14.98;9.25;;;16.00;99.90;;;;;;5072338;28;19935;-73
2022/11/17 11:30:02;;;;;;;11.32;6.75;;;16.00;99.90;;;;;;5071913;28;20055;-78
2022/11/17 11:32:41;;;;;;;7.07;4.82;;;16.10;99.90;;;;;;5072297;28;20040;-75
2022/11/17 11:35:49;;;;;;;6.82;3.38;;;16.00;99.90;;;;;;5072320;28;20051;-77
2022/11/17 11:38:35;;;;;;;6.10;2.80;;;16.00;99.90;;;;;;5071173;28;20048;-75
2022/11/17 11:41:21;;;;;;;11.10;6.45;;;16.10;99.90;;;;;;5071634;28;20032;-78
2022/11/17 11:43:59;;;;;;;6.75;3.15;;;16.20;99.90;;;;;;5072307;28;20033;-74
2022/11/17 11:46:38;;;;;;;6.85;3.13;;;16.30;99.90;;;;;;5070640;28;20041;-77
2022/11/17 11:49:17;;;;;;;5.45;2.88;;;16.00;99.90;;;;;;5069618;28;20472;-76
2022/11/17 11:51:49;;;;;;;7.28;3.28;;;16.00;99.90;;;;;;5080381;28;20100;-76
2022/11/17 11:54:24;;;;;;;5.70;2.80;;;16.10;99.90;;;;;;5081642;28;20044;-76
2022/11/17 11:56:54;;;;;;;10.53;4.70;;;16.20;99.90;;;;;;5077200;28;20098;-77
2022/11/17 11:59:30;;;;;;;9.23;5.63;;;16.20;99.90;;;;;;5071529;28;20498;-76
2022/11/17 12:02:12;;;;;;;7.38;5.05;;;16.30;99.90;;;;;;5070622;28;20048;-77
2022/11/17 12:04:45;;;;;;;7.18;4.88;;;16.40;99.90;;;;;;5071832;28;20040;-78
2022/11/17 12:07:20;;;;;;;7.13;3.58;;;16.50;99.90;;;;;;5071634;28;20462;-77
2022/11/17 12:10:01;;;;;;;10.07;5.38;;;16.60;99.90;;;;;;5070383;28;20480;-78
2022/11/17 12:12:32;;;;;;;8.95;4.80;;;16.70;99.90;;;;;;5071098;28;20033;-75
2022/11/17 12:15:25;;;;;;;8.70;4.35;;;16.70;99.90;;;;;;5070907;28;20087;-75
2022/11/17 12:18:01;;;;;;;12.88;5.07;;;16.80;99.90;;;;;;5070482;28;20070;-77
2022/11/17 12:21:01;;;;;;;7.97;4.22;;;16.90;99.90;;;;;;5069238;28;20045;-76
2022/11/17 12:24:02;;;;;;;7.78;4.72;;;17.00;99.90;;;;;;5071089;28;20048;-76
2022/11/17 12:26:31;;;;;;;9.35;5.07;;;17.00;99.90;;;;;;5069207;28;20057;-75
2022/11/17 12:29:28;;;;;;;9.30;5.82;;;17.10;99.90;;;;;;5070454;28;20048;-77
2022/11/17 12:31:56;;;;;;;7.97;5.13;;;17.20;99.90;;;;;;5071267;28;20045;-76
2022/11/17 12:34:29;;;;;;;11.70;5.45;;;17.20;99.90;;;;;;5070935;28;20040;-74
2022/11/17 12:37:21;;;;;;;11.05;6.30;;;17.30;99.90;;;;;;5070122;28;20049;-76
2022/11/17 12:40:04;;;;;;;11.23;4.80;;;17.20;99.90;;;;;;5069165;28;20082;-76
2022/11/17 12:42:32;;;;;;;7.10;3.55;;;17.10;99.90;;;;;;5070897;28;20044;-75
2022/11/17 12:45:03;;;;;;;7.05;3.80;;;17.10;99.90;;;;;;5071637;28;20558;-77
2022/11/17 12:47:32;;;;;;;7.95;4.53;;;17.10;99.90;;;;;;5071311;28;20094;-74
2022/11/17 12:50:40;;;;;;;5.50;2.85;;;17.20;99.90;;;;;;5070417;28;20102;-75
2022/11/17 12:53:39;;;;;;;7.13;3.70;;;17.30;99.90;;;;;;5069979;28;20044;-76
2022/11/17 12:56:44;;;;;;;11.55;3.78;;;17.40;99.90;;;;;;5070402;28;20457;-77
2022/11/17 12:59:44;;;;;;;6.95;4.03;;;17.40;99.90;;;;;;5068542;28;20492;-77
2022/11/17 13:02:30;;;;;;;7.28;4.25;;;17.40;99.90;;;;;;5067463;28;20106;-77
2022/11/17 13:05:02;;;;;;;8.50;4.03;;;17.50;99.90;;;;;;5069617;28;20041;-75
2022/11/17 13:07:30;;;;;;;11.38;5.47;;;17.50;99.90;;;;;;5069568;28;20105;-78
2022/11/17 13:10:00;;;;;;;8.18;6.22;;;17.50;99.90;;;;;;5070037;28;20040;-76
2022/11/17 13:12:29;;;;;;;8.20;5.22;;;17.40;99.90;;;;;;5069402;28;20491;-77
2022/11/17 13:14:58;;;;;;;9.57;4.82;;;17.30;99.90;;;;;;5069998;28;20566;-75
2022/11/17 13:17:31;;;;;;;7.45;4.75;;;17.30;99.90;;;;;;5069982;28;20123;-77
2022/11/17 13:20:02;;;;;;;11.98;4.70;;;17.20;99.90;;;;;;5069383;28;20200;-77
2022/11/17 13:22:30;;;;;;;9.00;4.25;;;17.20;99.90;;;;;;5069429;28;20456;-77
2022/11/17 13:24:58;;;;;;;9.30;5.13;;;17.20;99.90;;;;;;5070589;28;20549;-77